sensor_id;sensor_type;location;lat;lon;timestamp;pressure;altitude;pressure_sealevel;temperature;humidity
47763;BME280;33526;42.690;23.322;2023-02-02T00:00:48;95092.13;;;4.02;54.18
47763;BME280;33526;42.690;23.322;2023-02-02T00:03:14;95126.81;;;4.27;53.86
47763;BME280;33526;42.690;23.322;2023-02-02T00:05:51;95127.59;;;4.28;54.21
47763;BME280;33526;42.690;23.322;2023-02-02T00:08:18;95122.63;;;4.19;54.04
47763;BME280;33526;42.690;23.322;2023-02-02T00:10:44;95132.28;;;4.31;53.85
47763;BME280;33526;42.690;23.322;2023-02-02T00:13:11;95149.59;;;4.35;54.13
47763;BME280;33526;42.690;23.322;2023-02-02T00:15:37;95139.38;;;4.32;53.91
47763;BME280;33526;42.690;23.322;2023-02-02T00:18:03;95121.00;;;4.21;54.00
47763;BME280;33526;42.690;23.322;2023-02-02T00:20:28;95143.22;;;4.38;53.16
47763;BME280;33526;42.690;23.322;2023-02-02T00:22:55;95152.84;;;4.50;53.74
47763;BME280;33526;42.690;23.322;2023-02-02T00:25:20;95148.34;;;4.39;54.02
47763;BME280;33526;42.690;23.322;2023-02-02T00:27:46;95108.31;;;4.04;53.78
47763;BME280;33526;42.690;23.322;2023-02-02T00:30:12;95147.47;;;4.22;53.89
47763;BME280;33526;42.690;23.322;2023-02-02T00:32:38;95108.84;;;3.75;54.28
47763;BME280;33526;42.690;23.322;2023-02-02T00:35:06;95168.56;;;4.16;54.47
47763;BME280;33526;42.690;23.322;2023-02-02T00:37:31;95148.44;;;4.12;54.83
47763;BME280;33526;42.690;23.322;2023-02-02T00:39:57;95143.78;;;4.09;53.91
47763;BME280;33526;42.690;23.322;2023-02-02T00:42:22;95167.94;;;4.29;54.60
47763;BME280;33526;42.690;23.322;2023-02-02T00:44:48;95157.06;;;4.18;53.78
47763;BME280;33526;42.690;23.322;2023-02-02T00:47:31;95133.47;;;4.10;54.91
47763;BME280;33526;42.690;23.322;2023-02-02T00:49:57;95092.81;;;3.87;54.19
47763;BME280;33526;42.690;23.322;2023-02-02T00:52:22;95176.78;;;4.20;55.14
47763;BME280;33526;42.690;23.322;2023-02-02T00:54:48;95048.38;;;3.34;55.57
47763;BME280;33526;42.690;23.322;2023-02-02T00:57:13;95156.75;;;4.12;56.69
47763;BME280;33526;42.690;23.322;2023-02-02T00:59:39;95168.06;;;4.21;56.89
47763;BME280;33526;42.690;23.322;2023-02-02T01:02:05;95157.75;;;4.22;57.09
47763;BME280;33526;42.690;23.322;2023-02-02T01:04:31;95149.19;;;4.16;57.70
47763;BME280;33526;42.690;23.322;2023-02-02T01:06:56;95099.22;;;3.83;57.91
47763;BME280;33526;42.690;23.322;2023-02-02T01:09:21;95157.34;;;4.04;58.93
47763;BME280;33526;42.690;23.322;2023-02-02T01:11:47;95151.13;;;3.96;59.18
47763;BME280;33526;42.690;23.322;2023-02-02T01:14:12;95079.00;;;3.43;59.50
47763;BME280;33526;42.690;23.322;2023-02-02T01:16:38;95126.88;;;3.83;60.09
47763;BME280;33526;42.690;23.322;2023-02-02T01:19:03;95083.91;;;3.55;59.81
47763;BME280;33526;42.690;23.322;2023-02-02T01:21:29;95139.56;;;3.81;60.00
47763;BME280;33526;42.690;23.322;2023-02-02T01:23:55;95143.72;;;3.69;60.11
47763;BME280;33526;42.690;23.322;2023-02-02T01:26:20;95094.59;;;3.33;60.50
47763;BME280;33526;42.690;23.322;2023-02-02T01:28:46;95130.88;;;3.59;60.38
47763;BME280;33526;42.690;23.322;2023-02-02T01:31:17;95095.22;;;3.41;60.29
47763;BME280;33526;42.690;23.322;2023-02-02T01:33:44;95123.34;;;3.59;60.37
47763;BME280;33526;42.690;23.322;2023-02-02T01:36:11;95126.81;;;3.40;61.70
47763;BME280;33526;42.690;23.322;2023-02-02T01:38:37;95068.94;;;2.82;61.92
47763;BME280;33526;42.690;23.322;2023-02-02T01:41:02;95129.03;;;3.01;63.08
47763;BME280;33526;42.690;23.322;2023-02-02T01:46:10;95108.91;;;2.74;64.34
47763;BME280;33526;42.690;23.322;2023-02-02T01:48:36;95077.13;;;2.35;64.58
47763;BME280;33526;42.690;23.322;2023-02-02T01:51:14;95097.69;;;2.57;64.85
47763;BME280;33526;42.690;23.322;2023-02-02T01:53:40;95009.19;;;1.86;65.68
47763;BME280;33526;42.690;23.322;2023-02-02T01:56:10;95050.44;;;2.24;65.87
47763;BME280;33526;42.690;23.322;2023-02-02T01:58:38;95054.38;;;2.27;65.93
47763;BME280;33526;42.690;23.322;2023-02-02T02:01:05;95062.06;;;2.39;65.50
47763;BME280;33526;42.690;23.322;2023-02-02T02:03:32;95049.63;;;2.27;66.05
47763;BME280;33526;42.690;23.322;2023-02-02T02:06:03;95033.94;;;2.21;65.95
47763;BME280;33526;42.690;23.322;2023-02-02T02:08:37;95000.28;;;2.06;65.83
47763;BME280;33526;42.690;23.322;2023-02-02T02:11:03;95103.22;;;2.57;66.29
47763;BME280;33526;42.690;23.322;2023-02-02T02:13:30;95027.41;;;2.11;66.38
47763;BME280;33526;42.690;23.322;2023-02-02T02:16:23;95053.84;;;2.36;66.47
47763;BME280;33526;42.690;23.322;2023-02-02T02:34:06;95108.94;;;2.43;67.75
47763;BME280;33526;42.690;23.322;2023-02-02T02:39:31;95102.22;;;2.44;67.17
47763;BME280;33526;42.690;23.322;2023-02-02T02:42:03;95108.13;;;2.46;67.41
47763;BME280;33526;42.690;23.322;2023-02-02T02:44:32;95080.41;;;2.26;67.95
47763;BME280;33526;42.690;23.322;2023-02-02T02:46:57;95114.09;;;2.41;67.98
47763;BME280;33526;42.690;23.322;2023-02-02T02:49:23;95106.06;;;2.50;67.39
47763;BME280;33526;42.690;23.322;2023-02-02T02:59:54;95099.91;;;2.70;65.53
47763;BME280;33526;42.690;23.322;2023-02-02T03:08:23;95080.09;;;2.47;65.85
47763;BME280;33526;42.690;23.322;2023-02-02T03:10:55;95101.31;;;2.54;66.44
47763;BME280;33526;42.690;23.322;2023-02-02T03:13:21;95016.91;;;1.99;66.10
47763;BME280;33526;42.690;23.322;2023-02-02T03:15:47;95074.00;;;2.33;66.69
47763;BME280;33526;42.690;23.322;2023-02-02T03:18:14;95096.94;;;2.57;66.45
47763;BME280;33526;42.690;23.322;2023-02-02T03:20:42;95093.41;;;2.56;66.39
47763;BME280;33526;42.690;23.322;2023-02-02T03:23:08;95045.03;;;2.17;66.47
47763;BME280;33526;42.690;23.322;2023-02-02T03:25:33;95073.53;;;2.38;66.53
47763;BME280;33526;42.690;23.322;2023-02-02T03:27:59;95072.84;;;2.30;66.09
47763;BME280;33526;42.690;23.322;2023-02-02T03:30:25;95045.63;;;2.01;66.66
47763;BME280;33526;42.690;23.322;2023-02-02T03:32:51;95100.75;;;2.36;66.98
47763;BME280;33526;42.690;23.322;2023-02-02T03:35:17;95096.09;;;2.33;66.43
47763;BME280;33526;42.690;23.322;2023-02-02T03:37:44;95036.19;;;2.02;66.42
47763;BME280;33526;42.690;23.322;2023-02-02T03:40:10;95082.78;;;2.24;66.78
47763;BME280;33526;42.690;23.322;2023-02-02T03:42:35;95082.16;;;2.13;67.29
47763;BME280;33526;42.690;23.322;2023-02-02T03:45:01;95095.72;;;2.31;67.92
47763;BME280;33526;42.690;23.322;2023-02-02T03:47:28;95058.28;;;1.99;67.80
47763;BME280;33526;42.690;23.322;2023-02-02T03:49:53;95101.13;;;2.07;68.85
47763;BME280;33526;42.690;23.322;2023-02-02T03:52:19;95057.44;;;1.67;69.06
47763;BME280;33526;42.690;23.322;2023-02-02T03:54:44;95066.63;;;1.57;69.72
47763;BME280;33526;42.690;23.322;2023-02-02T03:57:10;95049.50;;;1.39;70.42
47763;BME280;33526;42.690;23.322;2023-02-02T03:59:35;95061.69;;;1.41;70.81
47763;BME280;33526;42.690;23.322;2023-02-02T04:02:00;95027.34;;;1.11;70.89
47763;BME280;33526;42.690;23.322;2023-02-02T04:04:26;95070.41;;;1.32;70.76
47763;BME280;33526;42.690;23.322;2023-02-02T04:06:51;95092.72;;;1.45;70.73
47763;BME280;33526;42.690;23.322;2023-02-02T04:09:17;94992.28;;;0.78;71.04
47763;BME280;33526;42.690;23.322;2023-02-02T04:11:42;95098.66;;;1.44;71.09
47763;BME280;33526;42.690;23.322;2023-02-02T04:14:09;95088.88;;;1.39;71.24
47763;BME280;33526;42.690;23.322;2023-02-02T04:16:34;94984.47;;;0.69;70.95
47763;BME280;33526;42.690;23.322;2023-02-02T04:19:02;95115.06;;;1.55;71.27
47763;BME280;33526;42.690;23.322;2023-02-02T04:21:28;95081.03;;;1.34;71.25
47763;BME280;33526;42.690;23.322;2023-02-02T04:23:53;95063.47;;;1.21;70.86
47763;BME280;33526;42.690;23.322;2023-02-02T04:26:19;95108.00;;;1.53;70.88
47763;BME280;33526;42.690;23.322;2023-02-02T04:28:44;95121.41;;;1.51;71.23
47763;BME280;33526;42.690;23.322;2023-02-02T04:31:09;95101.03;;;1.42;71.08
47763;BME280;33526;42.690;23.322;2023-02-02T04:33:35;95079.97;;;1.24;71.59
47763;BME280;33526;42.690;23.322;2023-02-02T04:36:01;95075.34;;;1.10;71.65
47763;BME280;33526;42.690;23.322;2023-02-02T04:38:26;95058.94;;;1.00;71.93
47763;BME280;33526;42.690;23.322;2023-02-02T04:40:51;95052.00;;;0.81;72.23
47763;BME280;33526;42.690;23.322;2023-02-02T04:43:17;95114.66;;;1.14;72.99
47763;BME280;33526;42.690;23.322;2023-02-02T04:45:42;94993.31;;;0.46;72.72
47763;BME280;33526;42.690;23.322;2023-02-02T04:48:09;94974.69;;;0.12;72.95
47763;BME280;33526;42.690;23.322;2023-02-02T04:50:35;95073.22;;;0.84;73.35
47763;BME280;33526;42.690;23.322;2023-02-02T04:53:00;95026.31;;;0.46;73.12
47763;BME280;33526;42.690;23.322;2023-02-02T04:55:26;95003.63;;;0.34;73.06
47763;BME280;33526;42.690;23.322;2023-02-02T04:57:51;95131.50;;;1.24;72.71
47763;BME280;33526;42.690;23.322;2023-02-02T05:00:17;95101.31;;;1.09;72.75
47763;BME280;33526;42.690;23.322;2023-02-02T05:02:42;95129.53;;;1.24;73.16
47763;BME280;33526;42.690;23.322;2023-02-02T05:05:11;95123.66;;;1.19;72.99
47763;BME280;33526;42.690;23.322;2023-02-02T05:07:36;95099.09;;;0.93;72.54
47763;BME280;33526;42.690;23.322;2023-02-02T05:10:04;95068.50;;;0.81;72.41
47763;BME280;33526;42.690;23.322;2023-02-02T05:12:30;95084.91;;;0.95;72.27
47763;BME280;33526;42.690;23.322;2023-02-02T05:14:55;95094.25;;;1.08;72.15
47763;BME280;33526;42.690;23.322;2023-02-02T05:17:20;95047.66;;;0.83;71.81
47763;BME280;33526;42.690;23.322;2023-02-02T05:19:46;95103.00;;;0.96;72.43
47763;BME280;33526;42.690;23.322;2023-02-02T05:22:11;95063.34;;;0.86;72.29
47763;BME280;33526;42.690;23.322;2023-02-02T05:24:37;95045.78;;;0.69;72.20
47763;BME280;33526;42.690;23.322;2023-02-02T05:27:02;95060.31;;;0.73;72.38
47763;BME280;33526;42.690;23.322;2023-02-02T05:29:29;95043.47;;;0.64;72.47
47763;BME280;33526;42.690;23.322;2023-02-02T05:31:55;95039.72;;;0.40;72.33
47763;BME280;33526;42.690;23.322;2023-02-02T05:34:21;95051.59;;;0.26;72.81
47763;BME280;33526;42.690;23.322;2023-02-02T05:36:47;95002.25;;;-0.03;73.04
47763;BME280;33526;42.690;23.322;2023-02-02T05:39:12;95058.28;;;0.22;72.88
47763;BME280;33526;42.690;23.322;2023-02-02T05:41:38;95106.47;;;0.51;72.81
47763;BME280;33526;42.690;23.322;2023-02-02T05:44:03;95097.00;;;0.56;73.01
47763;BME280;33526;42.690;23.322;2023-02-02T05:46:29;95142.41;;;0.86;72.80
47763;BME280;33526;42.690;23.322;2023-02-02T05:48:55;95086.00;;;0.56;72.34
47763;BME280;33526;42.690;23.322;2023-02-02T05:51:26;95122.38;;;0.85;72.18
47763;BME280;33526;42.690;23.322;2023-02-02T05:53:52;95081.28;;;0.53;72.12
47763;BME280;33526;42.690;23.322;2023-02-02T05:56:18;95086.00;;;0.56;71.73
47763;BME280;33526;42.690;23.322;2023-02-02T05:58:43;95116.50;;;0.80;72.29
47763;BME280;33526;42.690;23.322;2023-02-02T06:01:13;95078.19;;;0.47;71.83
47763;BME280;33526;42.690;23.322;2023-02-02T06:03:39;95061.34;;;0.38;72.11
47763;BME280;33526;42.690;23.322;2023-02-02T06:06:04;95050.00;;;0.25;72.37
47763;BME280;33526;42.690;23.322;2023-02-02T06:08:30;94943.56;;;-0.37;71.95
47763;BME280;33526;42.690;23.322;2023-02-02T06:10:56;94992.06;;;-0.06;71.97
47763;BME280;33526;42.690;23.322;2023-02-02T06:13:21;94881.00;;;-0.79;72.25
47763;BME280;33526;42.690;23.322;2023-02-02T06:15:48;94988.97;;;-0.15;72.12
47763;BME280;33526;42.690;23.322;2023-02-02T06:18:14;95043.25;;;0.41;72.05
47763;BME280;33526;42.690;23.322;2023-02-02T06:21:08;94972.84;;;-0.09;72.24
47763;BME280;33526;42.690;23.322;2023-02-02T06:23:37;95081.34;;;0.46;71.61
47763;BME280;33526;42.690;23.322;2023-02-02T06:26:08;95063.31;;;0.34;71.69
47763;BME280;33526;42.690;23.322;2023-02-02T06:28:34;94999.94;;;-0.08;71.78
47763;BME280;33526;42.690;23.322;2023-02-02T06:31:18;95014.78;;;0.06;72.32
47763;BME280;33526;42.690;23.322;2023-02-02T06:34:01;94951.41;;;-0.32;71.98
47763;BME280;33526;42.690;23.322;2023-02-02T06:36:30;94979.53;;;-0.07;70.95
47763;BME280;33526;42.690;23.322;2023-02-02T06:38:58;94912.31;;;-0.65;70.92
47763;BME280;33526;42.690;23.322;2023-02-02T06:41:26;95115.81;;;0.61;71.41
47763;BME280;33526;42.690;23.322;2023-02-02T06:43:52;94932.72;;;-0.63;70.95
47763;BME280;33526;42.690;23.322;2023-02-02T06:46:21;95073.84;;;0.50;71.22
47763;BME280;33526;42.690;23.322;2023-02-02T06:48:47;94956.81;;;-0.18;70.19
47763;BME280;33526;42.690;23.322;2023-02-02T06:51:13;95050.25;;;0.52;69.46
47763;BME280;33526;42.690;23.322;2023-02-02T06:53:41;94906.16;;;-0.17;69.05
47763;BME280;33526;42.690;23.322;2023-02-02T06:56:10;94938.66;;;-0.05;69.13
47763;BME280;33526;42.690;23.322;2023-02-02T06:58:36;95094.59;;;1.14;68.45
47763;BME280;33526;42.690;23.322;2023-02-02T07:01:02;95170.22;;;1.92;66.99
47763;BME280;33526;42.690;23.322;2023-02-02T07:03:41;95024.25;;;1.06;65.87
47763;BME280;33526;42.690;23.322;2023-02-02T08:12:38;95050.22;;;3.40;60.06
47763;BME280;33526;42.690;23.322;2023-02-02T08:38:13;94942.66;;;3.30;57.67
47763;BME280;33526;42.690;23.322;2023-02-02T08:40:39;94889.19;;;2.96;57.67
47763;BME280;33526;42.690;23.322;2023-02-02T08:43:07;95043.94;;;4.20;58.14
47763;BME280;33526;42.690;23.322;2023-02-02T08:46:11;95147.38;;;5.03;57.47
47763;BME280;33526;42.690;23.322;2023-02-02T08:48:42;94973.09;;;4.22;56.83
47763;BME280;33526;42.690;23.322;2023-02-02T09:01:31;94981.38;;;4.75;53.36
47763;BME280;33526;42.690;23.322;2023-02-02T14:51:17;94859.78;;;3.82;76.82
47763;BME280;33526;42.690;23.322;2023-02-02T17:05:04;95213.38;;;2.79;89.93
47763;BME280;33526;42.690;23.322;2023-02-02T17:18:42;95187.81;;;2.06;87.78
47763;BME280;33526;42.690;23.322;2023-02-02T17:21:13;95153.53;;;1.69;87.77
47763;BME280;33526;42.690;23.322;2023-02-02T17:24:05;95071.66;;;1.28;88.57
47763;BME280;33526;42.690;23.322;2023-02-02T17:30:33;95170.53;;;2.02;87.29
47763;BME280;33526;42.690;23.322;2023-02-02T18:41:36;95106.38;;;1.60;77.75
47763;BME280;33526;42.690;23.322;2023-02-02T18:59:43;95204.31;;;2.13;79.03
47763;BME280;33526;42.690;23.322;2023-02-02T19:10:42;95280.56;;;2.68;77.83
47763;BME280;33526;42.690;23.322;2023-02-02T19:13:17;95215.25;;;2.20;76.72
47763;BME280;33526;42.690;23.322;2023-02-02T19:22:08;95272.28;;;2.68;77.09
47763;BME280;33526;42.690;23.322;2023-02-02T19:25:08;95139.34;;;1.70;76.90
47763;BME280;33526;42.690;23.322;2023-02-02T19:28:21;95261.16;;;2.41;77.10
47763;BME280;33526;42.690;23.322;2023-02-02T19:30:58;95180.19;;;1.83;75.45
47763;BME280;33526;42.690;23.322;2023-02-02T19:33:37;95155.09;;;1.70;75.11
47763;BME280;33526;42.690;23.322;2023-02-02T19:38:40;95253.75;;;2.35;74.37
47763;BME280;33526;42.690;23.322;2023-02-02T19:44:08;95172.41;;;1.70;74.33
47763;BME280;33526;42.690;23.322;2023-02-02T19:50:53;95153.59;;;1.62;73.95
47763;BME280;33526;42.690;23.322;2023-02-02T20:05:43;95167.69;;;1.71;75.41
47763;BME280;33526;42.690;23.322;2023-02-02T20:08:59;95306.69;;;2.60;73.22
47763;BME280;33526;42.690;23.322;2023-02-02T20:11:28;95307.88;;;2.63;73.94
47763;BME280;33526;42.690;23.322;2023-02-02T20:17:06;95306.31;;;2.58;72.80
47763;BME280;33526;42.690;23.322;2023-02-02T20:20:32;95156.75;;;1.60;71.87
47763;BME280;33526;42.690;23.322;2023-02-02T20:23:48;95302.44;;;2.52;73.42
47763;BME280;33526;42.690;23.322;2023-02-02T20:26:34;95152.41;;;1.63;73.77
47763;BME280;33526;42.690;23.322;2023-02-02T20:29:23;95291.38;;;2.56;73.75
47763;BME280;33526;42.690;23.322;2023-02-02T20:32:29;95285.81;;;2.59;74.15
47763;BME280;33526;42.690;23.322;2023-02-02T20:35:39;95301.63;;;2.55;72.97
47763;BME280;33526;42.690;23.322;2023-02-02T20:38:20;95156.78;;;1.57;72.82
47763;BME280;33526;42.690;23.322;2023-02-02T20:41:13;95293.31;;;2.55;73.63
47763;BME280;33526;42.690;23.322;2023-02-02T20:46:16;95218.84;;;2.17;73.78
47763;BME280;33526;42.690;23.322;2023-02-02T20:48:49;95277.56;;;2.56;72.85
47763;BME280;33526;42.690;23.322;2023-02-02T20:51:16;95148.00;;;1.69;73.30
47763;BME280;33526;42.690;23.322;2023-02-02T20:54:00;95140.16;;;1.67;72.53
47763;BME280;33526;42.690;23.322;2023-02-02T20:56:29;95188.75;;;1.92;73.15
47763;BME280;33526;42.690;23.322;2023-02-02T20:59:04;95197.28;;;2.05;72.42
47763;BME280;33526;42.690;23.322;2023-02-02T21:01:49;95128.38;;;1.63;72.58
47763;BME280;33526;42.690;23.322;2023-02-02T21:07:10;95275.75;;;2.42;72.45
47763;BME280;33526;42.690;23.322;2023-02-02T21:09:35;95270.66;;;2.37;73.61
47763;BME280;33526;42.690;23.322;2023-02-02T21:12:25;95197.91;;;1.82;73.10
47763;BME280;33526;42.690;23.322;2023-02-02T21:21:24;95275.44;;;2.33;73.95
47763;BME280;33526;42.690;23.322;2023-02-02T21:23:51;95271.47;;;2.34;73.48
47763;BME280;33526;42.690;23.322;2023-02-02T21:26:27;95138.84;;;1.41;73.61
47763;BME280;33526;42.690;23.322;2023-02-02T21:28:56;95168.94;;;1.63;73.95
47763;BME280;33526;42.690;23.322;2023-02-02T21:34:00;95178.25;;;1.76;73.97
47763;BME280;33526;42.690;23.322;2023-02-02T21:36:55;95211.56;;;1.96;74.33
47763;BME280;33526;42.690;23.322;2023-02-02T21:42:25;95119.84;;;1.50;73.71
47763;BME280;33526;42.690;23.322;2023-02-02T21:45:01;95186.03;;;1.88;73.96
47763;BME280;33526;42.690;23.322;2023-02-02T21:50:35;95148.47;;;1.60;73.03
47763;BME280;33526;42.690;23.322;2023-02-02T21:53:25;95283.91;;;2.53;73.30
47763;BME280;33526;42.690;23.322;2023-02-02T21:55:58;95220.84;;;2.13;73.42
47763;BME280;33526;42.690;23.322;2023-02-02T21:58:36;95221.63;;;2.14;72.23
47763;BME280;33526;42.690;23.322;2023-02-02T22:04:44;95266.59;;;2.48;71.52
47763;BME280;33526;42.690;23.322;2023-02-02T22:07:25;95310.09;;;2.72;71.37
47763;BME280;33526;42.690;23.322;2023-02-02T22:13:31;95149.88;;;1.79;71.12
47763;BME280;33526;42.690;23.322;2023-02-02T22:16:18;95295.13;;;2.73;70.81
47763;BME280;33526;42.690;23.322;2023-02-02T22:18:55;95251.19;;;2.51;71.58
47763;BME280;33526;42.690;23.322;2023-02-02T22:21:23;95259.44;;;2.55;70.23
47763;BME280;33526;42.690;23.322;2023-02-02T22:24:04;95230.53;;;2.28;70.24
47763;BME280;33526;42.690;23.322;2023-02-02T22:27:16;95241.97;;;2.31;70.38
47763;BME280;33526;42.690;23.322;2023-02-02T22:30:32;95312.06;;;2.75;70.63
47763;BME280;33526;42.690;23.322;2023-02-02T22:33:09;95233.44;;;2.14;71.79
47763;BME280;33526;42.690;23.322;2023-02-02T22:35:59;95161.31;;;1.78;70.71
47763;BME280;33526;42.690;23.322;2023-02-02T22:41:03;95306.81;;;2.84;70.23
47763;BME280;33526;42.690;23.322;2023-02-02T22:49:20;95301.38;;;2.77;70.64
47763;BME280;33526;42.690;23.322;2023-02-02T22:57:46;95302.91;;;2.81;69.87
47763;BME280;33526;42.690;23.322;2023-02-02T23:34:14;95282.50;;;2.72;70.60
47763;BME280;33526;42.690;23.322;2023-02-02T23:41:08;95276.97;;;2.72;69.76
47763;BME280;33526;42.690;23.322;2023-02-02T23:49:37;95197.22;;;2.12;71.11
47763;BME280;33526;42.690;23.322;2023-02-02T23:58:13;95211.75;;;2.16;71.41
